x

Potomac, Md (44042) Weather Station

6:50am - Mon 3rd Aug 2015 All times are EDT. -4 hours from GMT.

  • Wind
    11mph, 13mph gusts
  • Air Temp 78°f
  • Sea Pressure 1010.6mb
  • Potomac, Md
  • Potomac, Md

More Historic Weather Station data

Upgrade to MSW Pro to gain access to the past 30 days of data for over 8000 Wavebouys and Weather Stations around the globe.

Join Pro

Comparision Forecast

View Surf forecast
   
Mon 08/03 6:50am  -   -  11 13 mph 1010.6mb - 78f
6:40am  -   -  11 13 mph 1010.5mb - 78f
6:30am  -   -  11
mph
1010.5mb - 78f
6:20am  -   -  11 13 mph 1010.5mb - 78f
6:10am  -   -  11 13 mph 1010.5mb - 78f
5:50am  -   -  11 13 mph 1010.8mb - 78f
5:30am  -   -  13 16 mph 1010.7mb - 77f
5:20am  -   -  13 16 mph 1010.9mb - 78f
5:10am  -   -  13 16 mph 1010.9mb - 77f
5:00am 1ft 2s 13 18 mph 1010.9mb 82f 78f
4:50am  -   -  13 16 mph 1010.9mb - 78f
4:40am  -   -  11 13 mph 1010.9mb - 78f
4:30am  -   -  11 13 mph 1010.9mb - 78f
4:20am  -   -  11 13 mph 1010.8mb - 77f
4:10am  -   -  11 13 mph 1010.9mb - 77f
4:00am 1ft 2s 11
mph
1010.8mb 82f 77f
3:50am  -   -  11 16 mph 1010.7mb - 77f
3:40am  -   -  9 16 mph 1010.6mb - 78f
3:30am  -   -  9 11 mph 1010.7mb - 79f
3:20am  -   -  9 11 mph 1010.7mb - 79f
3:10am  -   -  11 13 mph 1010.7mb - 79f
3:00am 1ft 3s 11 13 mph 1010.8mb 83f 79f
2:50am  -   -  11
mph
1010.9mb - 79f
2:40am  -   -  11 13 mph 1011mb - 79f
2:30am  -   -  11 13 mph 1011.1mb - 80f
2:20am  -   -  11
mph
1011.3mb - 80f
2:10am  -   -  9 11 mph 1011.4mb - 80f
2:00am  -   -  9 11 mph 1011.3mb 83f 80f
1:50am  -   -  9 11 mph 1011.3mb - 80f
1:40am  -   -  9 11 mph 1011.4mb - 80f
1:30am  -   -  9 11 mph 1011.5mb - 80f
1:20am  -   -  9 11 mph 1011.6mb - 80f
1:10am  -   -  9 11 mph 1011.6mb - 80f
1:00am  -   -  9
mph
1011.7mb 83f 80f
12:50am  -   -  7 9 mph 1011.8mb - 80f
12:40am  -   -  7 9 mph 1011.9mb - 80f
12:30am  -   -  7 9 mph 1011.9mb - 80f
12:20am  -   -  7 9 mph 1012mb - 80f
12:10am  -   -  7 9 mph 1012mb - 80f
12:00am 0.3ft  -  7 9 mph 1012mb 83f 80f
Sun 08/02 11:50pm  -   -  7 9 mph 1012mb - 81f
11:40pm  -   -  7 9 mph 1012mb - 81f
11:30pm  -   -  9 11 mph 1012mb - 81f
11:20pm  -   -  9 11 mph 1012mb - 81f
11:10pm  -   -  9 11 mph 1012.1mb - 82f
11:00pm 0.3ft  -  9
mph
1012.3mb 83f 82f
10:50pm  -   -  9
mph
1012.3mb - 82f
10:40pm  -   -  9
mph
1012.4mb - 82f
10:30pm  -   -  7 9 mph 1012.5mb - 83f
10:20pm  -   -  7
mph
1012.7mb - 83f
10:10pm  -   -  4 7 mph 1012.6mb - 83f
10:00pm  -   -  4 7 mph 1012.5mb 84f 83f
9:50pm  -   -  2 7 mph 1012.4mb - 83f
9:30pm  -   -  2 4 mph 1012.2mb - 83f
9:20pm  -   -  2 4 mph 1012mb - 83f
9:10pm  -   -  2 4 mph 1011.9mb - 83f
9:00pm  -   -   -  2 mph 1011.7mb 84f 83f
8:50pm  -   -   -  mph 1011.7mb - 83f
8:40pm  -   -   -  2 mph 1011.7mb - 83f
8:30pm  -   -   -  2 mph 1011.7mb - 84f
8:20pm  -   -  2
mph
1011.6mb - 84f
8:00pm  -   -  2
mph
1011.7mb 83f 86f
7:50pm  -   -   -  2 mph 1011.7mb - 87f
7:40pm  -   -  2
mph
1011.8mb - 86f
7:30pm  -   -  2
mph
1011.8mb - 85f
7:20pm  -   -  2 4 mph 1011.7mb - 85f
7:10pm  -   -  2 4 mph 1011.8mb - 86f
7:00pm 0.3ft  -  2 4 mph 1011.8mb 84f 86f
6:50pm  -   -  2 4 mph 1011.8mb - 86f
6:40pm  -   -  2
mph
1011.9mb - 86f
6:30pm  -   -  2 4 mph 1012mb - 86f
6:20pm  -   -  2
mph
1012.1mb - 86f
6:10pm  -   -  2
mph
1012.2mb - 86f
6:00pm 0.3ft  -  2
mph
1012.3mb 84f 85f
5:50pm  -   -  2 4 mph 1012.4mb - 85f
5:40pm  -   -  2 4 mph 1012.5mb - 85f
5:30pm  -   -  2 4 mph 1012.5mb - 85f
5:20pm  -   -  2 4 mph 1012.5mb - 85f
5:10pm  -   -  2 4 mph 1012.6mb - 84f
5:00pm 0.3ft  -  2 4 mph 1012.6mb 84f 85f
4:50pm  -   -  2 4 mph 1012.7mb - 85f
4:40pm  -   -  2 4 mph 1012.6mb - 86f
4:30pm  -   -   -  2 mph 1012.6mb - 86f
4:20pm  -   -   -  2 mph 1012.7mb - 86f
4:10pm  -   -   -  2 mph 1012.7mb - 85f
4:00pm 0.3ft  -  2 4 mph 1012.6mb 84f 85f
3:50pm  -   -  2
mph
1012.5mb - 85f
3:40pm  -   -  2 4 mph 1012.6mb - 85f
3:30pm  -   -  2 4 mph 1012.7mb - 85f
3:20pm  -   -  2 4 mph 1012.6mb - 84f
3:10pm  -   -  4
mph
1012.6mb - 84f
3:00pm 0.3ft  -  4
mph
1012.6mb 83f 84f
2:50pm  -   -  4 7 mph 1012.6mb - 84f
2:40pm  -   -  4 7 mph 1012.8mb - 84f
2:30pm  -   -  4 7 mph 1012.8mb - 84f
2:20pm  -   -  7
mph
1012.9mb - 84f
2:10pm  -   -  7 9 mph 1013mb - 83f
2:00pm 0.3ft  -  7 9 mph 1013.1mb 83f 83f
1:50pm  -   -  7 9 mph 1013.2mb - 83f
1:40pm  -   -  7 9 mph 1013.3mb - 83f
1:30pm  -   -  7 11 mph 1013.3mb - 83f
1:20pm  -   -  9 11 mph 1013.4mb - 82f
1:10pm  -   -  9 11 mph 1013.5mb - 82f
1:00pm 0.7ft  -  9 11 mph 1013.5mb 83f 82f
12:50pm  -   -  9 11 mph 1013.6mb - 82f
12:40pm  -   -  9 11 mph 1013.7mb - 81f
12:30pm  -   -  9 11 mph 1013.7mb - 82f
12:20pm  -   -  9 11 mph 1013.7mb - 81f
12:10pm  -   -  9 13 mph 1013.7mb - 81f
12:00pm 0.7ft  -  9 11 mph 1013.7mb 83f 81f
11:50am  -   -  11 13 mph 1013.7mb - 81f
11:40am  -   -  9 13 mph 1013.7mb - 81f
11:30am  -   -  11 13 mph 1013.6mb - 81f
11:20am  -   -  11 16 mph 1013.5mb - 81f
11:10am  -   -  11 13 mph 1013.5mb - 81f
11:00am 0.7ft  -  11 16 mph 1013.4mb 83f 81f
10:50am  -   -  11 13 mph 1013.3mb - 81f
10:40am  -   -  11 13 mph 1013.2mb - 81f
10:30am  -   -  9 16 mph 1013.2mb - 81f
10:20am  -   -  11 13 mph 1013.1mb - 81f
10:10am  -   -  11 16 mph 1013mb - 81f
10:00am 0.7ft  -  11 13 mph 1013mb 82f 80f
9:50am  -   -  11 13 mph 1013mb - 80f
9:30am  -   -  11 16 mph 1012.8mb - 81f
9:20am  -   -  9 16 mph 1012.8mb - 80f
9:10am  -   -  9 13 mph 1012.7mb - 80f
9:00am 0.3ft  -  9 13 mph 1012.6mb 82f 80f
8:50am  -   -  9 13 mph 1012.6mb - 81f
8:40am  -   -  9 13 mph 1012.4mb - 81f
8:30am  -   -  7 9 mph 1012.3mb - 80f
8:20am  -   -  9 11 mph 1012.2mb - 80f
8:00am 0.3ft  -  9 11 mph 1012.1mb 82f 79f
7:50am  -   -  9 11 mph 1012mb - 78f
7:40am  -   -  9 11 mph 1012.1mb - 78f
7:30am  -   -  9
mph
1012mb - 78f
7:20am  -   -  7 9 mph 1011.9mb - 78f
7:10am  -   -  7 9 mph 1011.8mb - 79f
7:00am 0.3ft  -  9 11 mph 1011.7mb 82f 79f
6:50am  -   -  9 11 mph 1011.6mb - 79f
6:40am  -   -  9 11 mph 1011.5mb - 78f
6:30am  -   -  9 11 mph 1011.6mb - 78f
6:20am  -   -  9 11 mph 1011.5mb - 78f
6:10am  -   -  7 9 mph 1011.5mb - 78f
6:00am 0.7ft  -  7 9 mph 1011.5mb 82f 78f
5:50am  -   -  7 9 mph 1011.3mb - 78f
5:40am  -   -  7 9 mph 1011.2mb - 77f
5:30am  -   -  7 9 mph 1011.1mb - 78f
5:20am  -   -  9 11 mph 1010.9mb - 78f
5:10am  -   -  9 11 mph 1010.8mb - 78f
5:00am 0.3ft  -  9 11 mph 1010.7mb 82f 78f
4:50am  -   -  9 11 mph 1010.7mb - 78f
4:40am  -   -  9 11 mph 1010.7mb - 78f
4:30am  -   -  9 11 mph 1010.6mb - 79f
4:20am  -   -  11 13 mph 1010.6mb - 79f
4:10am  -   -  11 13 mph 1010.7mb - 79f
4:00am 0.7ft  -  11 13 mph 1010.8mb 83f 79f
3:50am  -   -  9 11 mph 1010.9mb - 80f
3:40am  -   -  9 11 mph 1011mb - 80f
3:30am  -   -  9 11 mph 1011mb - 80f
3:20am  -   -  9
mph
1011.1mb - 80f
3:10am  -   -  9
mph
1011.1mb - 80f
3:00am 0.7ft  -  9 11 mph 1011.1mb 83f 80f
2:50am  -   -  9 11 mph 1011mb - 80f
2:40am  -   -  11
mph
1010.9mb - 80f
2:30am  -   -  11 13 mph 1010.9mb - 80f
2:20am  -   -  11 16 mph 1010.9mb - 81f
2:10am  -   -  11 16 mph 1010.9mb - 81f
2:00am 1ft 3s 7 9 mph 1010.9mb 83f 81f
1:50am  -   -  7
mph
1010.8mb - 82f
1:40am  -   -  7
mph
1010.8mb - 82f
1:30am  -   -  4 7 mph 1010.7mb - 82f
1:20am  -   -  7
mph
1010.7mb - 83f
1:10am  -   -  7 9 mph 1010.7mb - 83f
1:00am 1ft 3s 4 7 mph 1010.7mb 83f 83f
12:50am  -   -  4 7 mph 1010.6mb - 82f
12:40am  -   -  7
mph
1010.6mb - 82f
12:30am  -   -  7 9 mph 1010.6mb - 82f
12:20am  -   -  7
mph
1010.6mb - 82f
12:10am  -   -  7 9 mph 1010.6mb - 82f
12:00am 1ft 2s 9
mph
1010.5mb 83f 82f
Sat 08/01 11:50pm  -   -  9 11 mph 1010.5mb - 82f
11:40pm  -   -  9 11 mph 1010.5mb - 82f
11:30pm  -   -  9 11 mph 1010.5mb - 82f
11:20pm  -   -  9 11 mph 1010.4mb - 82f
11:10pm  -   -  9 11 mph 1010.4mb - 82f
11:00pm 1ft 2s 9 11 mph 1010.3mb 83f 82f
10:50pm  -   -  9 11 mph 1010.4mb - 83f
10:40pm  -   -  11 13 mph 1010.5mb - 83f
10:30pm  -   -  9 11 mph 1010.4mb - 83f
10:20pm  -   -  9 11 mph 1010.5mb - 83f
10:10pm  -   -  9 11 mph 1010.5mb - 83f
10:00pm 0.7ft  -  9 11 mph 1010.4mb 84f 83f
9:50pm  -   -  9 11 mph 1010.4mb - 84f
9:40pm  -   -  9 11 mph 1010.4mb - 84f
9:20pm  -   -  9 11 mph 1010mb - 85f
9:10pm  -   -  7
mph
1009.8mb - 85f
9:00pm 0.3ft  -  7 9 mph 1009.8mb 84f 85f
8:40pm  -   -  9
mph
1009.7mb - 86f
8:30pm  -   -  7 9 mph 1009.6mb - 86f
8:20pm  -   -  9
mph
1009.5mb - 86f
8:00pm 0.3ft  -  7 9 mph 1009.5mb 84f 87f
7:50pm  -   -  7 9 mph 1009.4mb - 87f
7:40pm  -   -  7 9 mph 1009.3mb - 87f
7:30pm  -   -  7 9 mph 1009.2mb - 87f
7:20pm  -   -  7 9 mph 1009.1mb - 88f
7:10pm  -   -  9
mph
1009mb - 88f
7:00pm  -   -  7 9 mph 1008.9mb - 89f
6:50pm  -   -  7 9 mph 1008.8mb - 89f
6:40pm  -   -  7 9 mph 1008.9mb - 89f
6:30pm  -   -  7 9 mph 1008.9mb - 89f
6:20pm  -   -  9
mph
1008.9mb - 89f
6:10pm  -   -  7 9 mph 1008.9mb - 89f
6:00pm 0.7ft  -  7
mph
1008.9mb 85f 89f
5:50pm  -   -  7 9 mph 1009mb - 89f
5:40pm  -   -  9 11 mph 1009.1mb - 89f
5:30pm  -   -  7
mph
1009.1mb - 89f
5:20pm  -   -  9 11 mph 1009.1mb - 89f
5:10pm  -   -  9 11 mph 1009.1mb - 89f
5:00pm 0.7ft  -  9 11 mph 1009.1mb 87f 88f
4:50pm  -   -  4 9 mph 1009.1mb - 88f
4:40pm  -   -  2 7 mph 1009.1mb - 87f
4:30pm  -   -  4 7 mph 1009.1mb - 86f
4:20pm  -   -  4 9 mph 1009.2mb - 87f
4:10pm  -   -  7 9 mph 1009.3mb - 86f
4:00pm 0.7ft  -  9 11 mph 1009.4mb 87f 85f
3:50pm  -   -  9 13 mph 1009.4mb - 85f
3:40pm  -   -  7 11 mph 1009.5mb - 87f
3:30pm  -   -  2 4 mph 1009.7mb - 87f
3:20pm  -   -  2 4 mph 1009.8mb - 86f
3:10pm  -   -  4 7 mph 1009.9mb - 86f
3:00pm 0.3ft  -  4 7 mph 1009.9mb 86f 86f
2:50pm  -   -  4 7 mph 1010mb - 86f
2:40pm  -   -  2 4 mph 1010mb - 87f
2:30pm  -   -  2
mph
1010.1mb - 86f
2:20pm  -   -  2
mph
1010.2mb - 86f
2:10pm  -   -  2 4 mph 1010.3mb - 86f
2:00pm 0.3ft  -  2 4 mph 1010.4mb 85f 85f
1:50pm  -   -  2
mph
1010.5mb - 85f
1:40pm  -   -  2 4 mph 1010.7mb - 85f
1:20pm  -   -  2 4 mph 1010.8mb - 85f
1:10pm  -   -  2 4 mph 1010.9mb - 84f
1:00pm 0.3ft  -  4
mph
1011mb 84f 84f
12:50pm  -   -  4
mph
1011.1mb - 83f
12:40pm  -   -  4
mph
1011.3mb - 83f
12:30pm  -   -  4
mph
1011.4mb - 83f
12:20pm  -   -  4 7 mph 1011.5mb - 83f
12:10pm  -   -  4 7 mph 1011.5mb - 83f
12:00pm 0.7ft  -  7
mph
1011.5mb 83f 83f
11:50am  -   -  7
mph
1011.5mb - 82f
11:40am  -   -  7 9 mph 1011.5mb - 82f
11:30am  -   -  7 9 mph 1011.5mb - 82f
11:20am  -   -  7 9 mph 1011.5mb - 82f
11:10am  -   -  7 9 mph 1011.4mb - 81f
11:00am 0.7ft  -  7 9 mph 1011.4mb 83f 81f
10:50am  -   -  7 9 mph 1011.3mb - 80f
10:40am  -   -  7 9 mph 1011.2mb - 80f
10:30am  -   -  7 11 mph 1011.1mb - 80f
10:20am  -   -  7 9 mph 1011mb - 79f
10:10am  -   -  7 9 mph 1011mb - 79f
10:00am 0.7ft  -  9 11 mph 1011mb 83f 79f
9:50am  -   -  9 11 mph 1011.1mb - 78f
9:40am  -   -  9 11 mph 1011.1mb - 78f
9:30am  -   -  9 11 mph 1011.2mb - 78f
9:20am  -   -  7 9 mph 1011.2mb - 78f
9:10am  -   -  9
mph
1011.1mb - 78f
9:00am 1ft 2s 7 11 mph 1011.2mb 82f 78f
8:50am  -   -  9 11 mph 1011.2mb - 78f
8:40am  -   -  9 11 mph 1011.3mb - 78f
8:30am  -   -  9 11 mph 1011.4mb - 78f
8:20am  -   -  9 11 mph 1011.4mb - 78f
8:10am  -   -  11
mph
1011.3mb - 78f
8:00am 1ft 2s 9 11 mph 1011.1mb 82f 77f
7:50am  -   -  7 9 mph 1011.1mb - 77f
7:40am  -   -  9 11 mph 1011mb - 78f
7:30am  -   -  11 13 mph 1010.9mb - 77f
7:20am  -   -  11
mph
1010.9mb - 78f
7:10am  -   -  9 11 mph 1010.8mb - 78f
7:00am 0.7ft  -  9 11 mph 1010.8mb 82f 78f
6:50am  -   -  9 11 mph 1010.8mb - 78f
6:40am  -   -  9 11 mph 1010.7mb - 78f
6:30am  -   -  9 11 mph 1010.7mb - 78f
6:20am  -   -  9 11 mph 1010.7mb - 78f
6:10am  -   -  9 11 mph 1010.7mb - 78f
6:00am 1ft 2s 7 9 mph 1010.6mb 82f 78f
5:50am  -   -  7 9 mph 1010.6mb - 78f
5:40am  -   -  11 13 mph 1010.5mb - 78f
5:30am  -   -  13 16 mph 1010.5mb - 78f
5:20am  -   -  11 16 mph 1010.6mb - 78f
5:10am  -   -  9 13 mph 1010.5mb - 79f
5:00am 1ft 2s 9 13 mph 1010.6mb 82f 79f
4:50am  -   -  9 11 mph 1010.3mb - 80f
4:40am  -   -  9 11 mph 1010.2mb - 80f
4:30am  -   -  9 11 mph 1010.2mb - 80f
4:20am  -   -  9 11 mph 1010.2mb - 80f
4:10am  -   -  9 11 mph 1010.3mb - 80f
4:00am 1ft 2s 11 13 mph 1010.4mb 83f 80f
3:50am  -   -  11 13 mph 1010.4mb - 80f
3:40am  -   -  11 13 mph 1010.5mb - 81f
3:30am  -   -  11
mph
1010.5mb - 81f
3:20am  -   -  9 11 mph 1010.6mb - 81f
3:10am  -   -  11
mph
1010.7mb - 81f
3:00am 1ft 2s 11 13 mph 1010.8mb 83f 81f
2:50am  -   -  11 16 mph 1010.9mb - 81f
2:40am  -   -  11 13 mph 1011mb - 81f
2:30am  -   -  11 13 mph 1011.1mb - 81f
2:20am  -   -  11 13 mph 1011.1mb - 80f
2:10am  -   -  11 13 mph 1011.1mb - 80f
2:00am 1.3ft 2s 11 13 mph 1011.1mb 83f 80f
1:50am  -   -  13 16 mph 1011.1mb - 80f
1:40am  -   -  13 16 mph 1011.1mb - 80f
1:30am  -   -  16
mph
1011.1mb - 80f
1:20am  -   -  13 16 mph 1011.2mb - 80f
1:10am  -   -  13 18 mph 1011.3mb - 81f
1:00am 1.3ft 3s 13 16 mph 1011.4mb 83f 81f
12:50am  -   -  13 16 mph 1011.4mb - 81f
12:40am  -   -  13 16 mph 1011.4mb - 81f
12:30am  -   -  16
mph
1011.4mb - 81f
12:20am  -   -  13 16 mph 1011.5mb - 81f
12:10am  -   -  13 16 mph 1011.5mb - 81f
12:00am 1ft 2s 11 13 mph 1011.5mb 83f 82f
Fri 07/31 11:50pm  -   -  13 16 mph 1011.5mb - 82f
11:40pm  -   -  13 16 mph 1011.7mb - 82f
11:30pm  -   -  13 16 mph 1011.8mb - 82f
11:20pm  -   -  11 13 mph 1011.8mb - 82f
11:10pm  -   -  13
mph
1011.8mb - 82f
11:00pm 1ft 2s 11 13 mph 1011.7mb 83f 82f
10:50pm  -   -  11 13 mph 1011.7mb - 82f
10:40pm  -   -  11 13 mph 1011.7mb - 82f
10:30pm  -   -  11 13 mph 1011.7mb - 83f
10:20pm  -   -  11 13 mph 1011.6mb - 82f
10:10pm  -   -  11 13 mph 1011.5mb - 82f
10:00pm  -   -  9 11 mph 1011.4mb 84f 82f
9:50pm  -   -  9 11 mph 1011.3mb - 83f
9:40pm  -   -  9 11 mph 1011.2mb - 83f
9:30pm  -   -  11 13 mph 1011.1mb - 84f
9:20pm  -   -  9 11 mph 1011mb - 84f
9:10pm  -   -  9 11 mph 1010.9mb - 84f
8:50pm  -   -  9 11 mph 1010.7mb - 84f
8:40pm  -   -  11
mph
1010.7mb - 85f
8:30pm  -   -  11
mph
1010.6mb - 85f
8:20pm  -   -  11
mph
1010.4mb - 85f
8:10pm  -   -  9 11 mph 1010.3mb - 85f
8:00pm 1ft 3s 11 13 mph 1010.2mb 84f 85f
7:50pm  -   -  11
mph
1010.1mb - 85f
7:10pm  -   -  11 13 mph 1009.9mb - 86f
7:00pm 1ft 2s 13 16 mph 1009.8mb 83f 86f
6:50pm  -   -  13 16 mph 1009.8mb - 86f
6:40pm  -   -  13 16 mph 1009.7mb - 86f
6:30pm  -   -  13 16 mph 1009.8mb - 86f
6:20pm  -   -  13 16 mph 1010mb - 86f
6:10pm  -   -  13 16 mph 1010mb - 86f
6:00pm 0.7ft  -  11 13 mph 1010.1mb 84f 86f
5:50pm  -   -  11
mph
1010.2mb - 86f
5:40pm  -   -  9 11 mph 1010.3mb - 86f
5:30pm  -   -  9 11 mph 1010.4mb - 86f
5:20pm  -   -  9 11 mph 1010.4mb - 86f
5:10pm  -   -  9 11 mph 1010.4mb - 86f
5:00pm 0.3ft  -  9 11 mph 1010.4mb 85f 85f
4:50pm  -   -  9 11 mph 1010.5mb - 85f
4:40pm  -   -  9 11 mph 1010.6mb - 85f
4:30pm  -   -  9 11 mph 1010.5mb - 85f
4:20pm  -   -  9 11 mph 1010.6mb - 85f
4:10pm  -   -  9 11 mph 1010.6mb - 85f
3:50pm  -   -  7 9 mph 1010.8mb - 85f
3:40pm  -   -  2 7 mph 1011mb - 86f
3:30pm  -   -   -  2 mph 1011.1mb - 86f
3:20pm  -   -  2
mph
1011.3mb - 85f
3:10pm  -   -  2
mph
1011.5mb - 85f
3:00pm 0.3ft  -  2 4 mph 1011.7mb 85f 85f
2:50pm  -   -  2
mph
1011.9mb - 85f
2:40pm  -   -  2
mph
1011.9mb - 84f
2:30pm  -   -  2 4 mph 1012mb - 84f
2:20pm  -   -  4 7 mph 1012.1mb - 84f
2:10pm  -   -  7 11 mph 1012.2mb - 84f
2:00pm 0.3ft  -  4 7 mph 1012.3mb 83f 83f
1:50pm  -   -  7
mph
1012.4mb - 83f
1:40pm  -   -  7
mph
1012.5mb - 83f
1:30pm  -   -  7 9 mph 1012.5mb - 83f
1:20pm  -   -  7 9 mph 1012.6mb - 83f
1:10pm  -   -  7 9 mph 1012.5mb - 83f
1:00pm 0.3ft  -  7 9 mph 1012.4mb 83f 82f
12:50pm  -   -  9 11 mph 1012.4mb - 82f
12:40pm  -   -  9 13 mph 1012.5mb - 84f
12:30pm  -   -  7 11 mph 1012.5mb - 84f
12:20pm  -   -  9 11 mph 1012.5mb - 84f
12:10pm  -   -  9 13 mph 1012.6mb - 83f
12:00pm 0.7ft  -  7 11 mph 1012.7mb 83f 83f
11:50am  -   -  9 11 mph 1012.7mb - 82f
11:40am  -   -  9 11 mph 1012.8mb - 82f
11:30am  -   -  7 9 mph 1012.9mb - 82f
11:20am  -   -  7 9 mph 1012.9mb - 82f
11:10am  -   -  7 9 mph 1013mb - 82f
11:00am 0.3ft  -  7 9 mph 1012.9mb 83f 82f
10:50am  -   -  7 9 mph 1012.9mb - 82f
10:40am  -   -  7 9 mph 1012.9mb - 82f
10:30am  -   -  7 9 mph 1012.9mb - 82f
10:20am  -   -  7 11 mph 1012.9mb - 81f
10:10am  -   -  7 9 mph 1012.8mb - 81f
10:00am 0.3ft  -  9 11 mph 1012.8mb 83f 81f
9:50am  -   -  7 9 mph 1012.8mb - 81f
9:40am  -   -  7 11 mph 1012.9mb - 80f
9:30am  -   -  7 9 mph 1012.9mb - 80f
9:20am  -   -  4 7 mph 1012.9mb - 80f
9:10am  -   -  4 7 mph 1012.9mb - 79f
9:00am 0.3ft  -  4 7 mph 1012.9mb 83f 79f
8:50am  -   -  4 7 mph 1012.8mb - 79f
8:40am  -   -  7 9 mph 1012.7mb - 79f
8:30am  -   -  9
mph
1012.6mb - 78f
8:20am  -   -  7 9 mph 1012.6mb - 78f
8:10am  -   -  7 9 mph 1012.5mb - 78f
8:00am 0.3ft  -  7 9 mph 1012.4mb 83f 78f
7:50am  -   -  7 9 mph 1012.3mb - 78f
7:40am  -   -  7 9 mph 1012.1mb - 78f
7:30am  -   -  9 11 mph 1012.1mb - 78f
7:20am  -   -  9 11 mph 1012mb - 78f
7:10am  -   -  9 11 mph 1011.9mb - 78f
7:00am 0.7ft  -  9 11 mph 1011.8mb 83f 77f
6:50am  -   -  11 13 mph 1011.7mb - 78f
6:40am  -   -  11 13 mph 1011.5mb - 77f
6:30am  -   -  11 13 mph 1011.4mb - 77f
6:20am  -   -  13 16 mph 1011.3mb - 77f
6:10am  -   -  13 16 mph 1011.3mb - 77f
6:00am 0.7ft  -  13 16 mph 1011.1mb 83f 78f
5:50am  -   -  11 16 mph 1011mb - 78f
5:40am  -   -  11 16 mph 1011mb - 78f
5:30am  -   -  13 16 mph 1011mb - 79f
5:20am  -   -  13 16 mph 1011mb - 78f
5:10am  -   -  11 13 mph 1011mb - 78f
5:00am 0.3ft  -  9 16 mph 1011mb 82f 78f
4:50am  -   -  9
mph
1011mb - 79f
4:40am  -   -  7 9 mph 1011mb - 79f
4:30am  -   -  9 11 mph 1010.9mb - 80f
4:20am  -   -  9 11 mph 1011mb - 80f
4:10am  -   -  9 11 mph 1011mb - 79f
4:00am 0.3ft  -  7 9 mph 1011mb 83f 79f
3:50am  -   -  7 9 mph 1011mb - 79f
3:40am  -   -  7 9 mph 1011mb - 78f
3:30am  -   -  9
mph
1011.1mb - 78f
3:20am  -   -  9 11 mph 1011mb - 78f
3:10am  -   -  7 9 mph 1011mb - 78f
3:00am  -   -  7 9 mph 1011mb 83f 78f
2:50am  -   -  7 9 mph 1011mb - 78f
2:40am  -   -  7 9 mph 1010.9mb - 78f
2:30am  -   -  7 9 mph 1010.8mb - 78f
2:20am  -   -  7 9 mph 1010.8mb - 78f
2:10am  -   -  7 9 mph 1010.8mb - 78f
2:00am 0.7ft  -  9 11 mph 1010.9mb 83f 77f
1:50am  -   -  9 11 mph 1010.9mb - 78f
1:40am  -   -  7 11 mph 1010.9mb - 78f
1:30am  -   -  4
mph
1010.8mb - 78f
1:20am  -   -  7 11 mph 1011mb - 78f
1:10am  -   -  9 11 mph 1011mb - 78f
1:00am 0.7ft  -  9 11 mph 1011mb 83f 79f
12:50am  -   -  11 13 mph 1011.1mb - 80f
12:40am  -   -  11 13 mph 1011.2mb - 80f
12:30am  -   -  7 9 mph 1011.2mb - 81f
12:20am  -   -  7 9 mph 1011.2mb - 81f
12:10am  -   -  4 9 mph 1011.3mb - 80f
12:00am 1ft 3s 9
mph
1011.2mb 83f 81f
Thu 07/30 11:50pm  -   -  11 13 mph 1011.1mb - 81f
11:40pm  -   -  13 18 mph 1011.1mb - 80f
11:30pm  -   -  13 18 mph 1011.3mb - 80f
11:20pm  -   -  16 25 mph 1011.4mb - 81f
11:10pm  -   -  16 22 mph 1011.1mb - 81f
11:00pm 0.3ft  -  18 25 mph 1011.1mb 84f 81f
10:50pm  -   -  13 20 mph 1011.4mb - 80f
10:40pm  -   -  4 7 mph 1011mb - 80f
10:30pm  -   -  7
mph
1011.1mb - 79f
10:20pm  -   -  7 11 mph 1011.1mb - 80f
10:10pm  -   -  7 9 mph 1011.1mb - 80f
10:00pm 0.3ft  -  9 11 mph 1011.3mb 84f 80f
9:50pm  -   -  4 7 mph 1011.1mb - 80f
9:40pm  -   -  4
mph
1011mb - 79f
9:30pm  -   -  2 4 mph 1010.8mb - 79f
9:20pm  -   -  4 7 mph 1010.6mb - 79f
9:10pm  -   -  7 9 mph 1010.6mb - 78f
9:00pm 0.3ft  -  9 11 mph 1010.6mb 84f 79f
8:50pm  -   -  7 9 mph 1010.5mb - 79f
8:40pm  -   -  4 7 mph 1010.5mb - 79f
8:30pm  -   -  2 4 mph 1010.5mb - 78f
8:20pm  -   -  2 4 mph 1010.5mb - 78f
8:10pm  -   -  2 4 mph 1010.4mb - 78f
8:00pm 1ft 2s 2 4 mph 1010.3mb 84f 78f
7:50pm  -   -  2 4 mph 1010.5mb - 78f
7:40pm  -   -  2 4 mph 1010.8mb - 78f
7:30pm  -   -  4
mph
1010.8mb - 78f
7:20pm  -   -  7 9 mph 1010.9mb - 78f
7:10pm  -   -  9 11 mph 1010.8mb - 78f
7:00pm 1.6ft 3s 11 13 mph 1010.8mb 84f 78f
6:50pm  -   -  13 16 mph 1010.9mb - 78f
6:40pm  -   -  13 18 mph 1010.9mb - 78f
6:30pm  -   -  13 16 mph 1010.6mb - 79f
6:20pm  -   -  11 16 mph 1010.3mb - 79f
6:10pm  -   -  16 18 mph 1010.3mb - 81f
6:00pm 1.3ft 3s 16 20 mph 1010mb 84f 82f
5:50pm  -   -  11 20 mph 1009.9mb - 85f
5:40pm  -   -  13 16 mph 1009.8mb - 86f
5:30pm  -   -  11 16 mph 1009.8mb - 86f
5:20pm  -   -  11 13 mph 1009.9mb - 85f
5:10pm  -   -  11 13 mph 1010mb - 85f
5:00pm 1.6ft 3s 11 13 mph 1010.2mb 84f 85f
4:50pm  -   -  11 13 mph 1010.2mb - 86f
4:10pm  -   -  13 16 mph 1010mb - 85f
4:00pm 1.6ft 3s 13 18 mph 1009.9mb 84f 85f
3:50pm  -   -  16 18 mph 1009.8mb - 85f
3:40pm  -   -  13 18 mph 1009.9mb - 84f
3:30pm  -   -  16 18 mph 1010.1mb - 84f
3:20pm  -   -  13 16 mph 1010.3mb - 84f
3:10pm  -   -  13 16 mph 1010.6mb - 84f
3:00pm 1.3ft 3s 13 16 mph 1010.7mb 84f 84f
2:50pm  -   -  9 13 mph 1010.9mb - 86f
2:40pm  -   -  7 11 mph 1011mb - 87f
2:30pm  -   -  9 11 mph 1011mb - 86f
2:20pm  -   -  9 13 mph 1011.1mb - 86f
2:10pm  -   -  9 13 mph 1011.1mb - 86f
2:00pm 1.3ft 2s 11 13 mph 1011.2mb 83f 86f
1:50pm  -   -  11 13 mph 1011.5mb - 86f
1:40pm  -   -  11 13 mph 1011.8mb - 86f
1:30pm  -   -  9 13 mph 1011.9mb - 86f
1:20pm  -   -  9 11 mph 1012.1mb - 86f
1:10pm  -   -  9 11 mph 1012.2mb - 85f
1:00pm 1ft 2s 11 13 mph 1012.4mb 83f 85f
12:50pm  -   -  11 13 mph 1012.4mb - 85f
12:40pm  -   -  11 13 mph 1012.5mb - 85f
12:30pm  -   -  11
mph
1012.6mb - 85f
12:20pm  -   -  11
mph
1012.7mb - 85f
12:10pm  -   -  11 13 mph 1012.8mb - 85f
12:00pm 1ft 2s 9 11 mph 1012.8mb 83f 84f
11:50am  -   -  9 11 mph 1013mb - 84f